Flight Track Log - Related Links

Times and Time Zones

All times are in EST time to prevent confusion due to time zone crossing. See the SBE607 flight status page for this flight to view local times or setup timezone preferences in your user account.

Time Position Orientation Groundspeed Altitude Reporting Facility
EST Latitude Longitude Course Direction KTS MPH feet Rate Location/Type
Tue 05:00:08 PM 29.5133 -98.4508 142° Southeast 192 221 3,200  Level Houston Center
Tue 05:00:44 PM 29.4850 -98.4206 137° Southeast 237 273 5,900 4,355 Climbing Houston Center
Tue 05:01:10 PM 29.4725 -98.3836 111° Southeast 258 297 7,700 4,247 Climbing Houston Center
Tue 05:02:13 PM 29.5328 -98.3269 39° Northeast 299 344 12,200 2,976 Climbing Houston Center
Tue 05:03:15 PM 29.6292 -98.3453 351° North 366 421 13,900 2,565 Climbing Houston Center
Tue 05:04:17 PM 29.7492 -98.3575 355° North 401 461 17,500 3,290 Climbing Houston Center
Tue 05:05:19 PM 29.8603 -98.3681 355° North 402 463 20,700 2,661 Climbing Houston Center
Tue 05:06:21 PM 29.9811 -98.3800 355° North 403 464 23,000 1,113 Climbing Houston Center
Tue 05:07:23 PM 30.1036 -98.3925 355° North 438 504 23,000  Level Houston Center
Tue 05:08:25 PM 30.2386 -98.3733 North 455 524 23,000  Level Houston Center
Tue 05:09:28 PM 30.3450 -98.3578 North 454 522 23,000  Level Houston Center
Tue 05:10:30 PM 30.4928 -98.3364 North 452 520 23,000  Level Houston Center
Tue 05:11:32 PM 30.6208 -98.3178 North 455 524 23,000  Level Houston Center
Tue 05:12:34 PM 30.7489 -98.2986 North 456 525 23,000  Level Houston Center
Tue 05:13:36 PM 30.8753 -98.2792 North 454 522 23,000  Level Houston Center
Tue 05:14:38 PM 31.0003 -98.2611 North 449 517 23,000  Level Houston Center
Tue 05:15:40 PM 31.1258 -98.2425 North 447 514 23,000  Level Houston Center
Tue 05:16:43 PM 31.2514 -98.2236 North 449 517 23,000  Level Houston Center
Tue 05:17:40 PM 31.3667 -98.1519 28° Northeast 468 539 23,000  Level Fort Worth Center
Tue 05:18:42 PM 31.4806 -98.0700 32° Northeast 473 544 23,000  Level Fort Worth Center
Tue 05:19:44 PM 31.5986 -97.9844 32° Northeast 487 560 23,000  Level Fort Worth Center
Tue 05:20:46 PM 31.7150 -97.8997 32° Northeast 486 559 23,000 -726 Level Fort Worth Center
Tue 05:21:48 PM 31.8500 -97.8014 32° Northeast 482 555 21,500 -1,984 Descending Fort Worth Center
Tue 05:22:50 PM 31.9647 -97.7194 31° Northeast 469 540 18,900 -2,468 Descending Fort Worth Center
Tue 05:23:52 PM 32.0706 -97.6431 31° Northeast 439 505 16,400 -2,323 Descending Fort Worth Center
Tue 05:24:54 PM 32.1697 -97.5689 32° Northeast 426 490 14,100 -2,208 Descending Fort Worth Center
Tue 05:25:57 PM 32.2725 -97.4925 32° Northeast 407 468 11,800 -1,824 Descending Fort Worth Center
Tue 05:26:59 PM 32.3508 -97.4200 38° Northeast 363 418 10,300 -1,500 Descending Fort Worth Center
Tue 05:28:01 PM 32.3836 -97.3189 69° East 322 371 8,700 -1,500 Descending Fort Worth Center
Tue 05:29:03 PM 32.4017 -97.2189 78° East 316 364 7,200 -1,500 Descending Fort Worth Center
Tue 05:30:05 PM 32.3986 -97.1186 92° East 292 336 5,600 -1,500 Descending Fort Worth Center
Tue 05:31:07 PM 32.3969 -97.0286 91° East 278 320 4,100 -774 Descending Fort Worth Center
Tue 05:32:09 PM 32.3953 -96.9328 91° East 272 313 4,000 -48 Descending Fort Worth Center
Tue 05:33:11 PM 32.4167 -96.8506 73° East 286 329 4,000  Level Fort Worth Center
Tue 05:34:14 PM 32.4925 -96.8236 17° North 281 323 4,000  Level Fort Worth Center
Tue 05:35:16 PM 32.5719 -96.7986 15° North 280 322 4,000  Level Fort Worth Center
Tue 05:36:18 PM 32.6464 -96.7756 15° North 278 320 4,000 -270 Level Fort Worth Center
Tue 05:37:07 PM 32.7167 -96.7500 17° North 267 307 3,500 -275 Descending Dallas / Fort Worth TRACON
Tue 05:38:07 PM 32.7833 -96.7500 360° North 253 291 3,500 -250 Level Dallas / Fort Worth TRACON
Tue 05:39:07 PM 32.8500 -96.7833 337° Northwest 200 230 3,000 -550 Descending Dallas / Fort Worth TRACON
Tue 05:40:07 PM 32.8833 -96.8000 337° Northwest 136 157 2,400 -700 Descending Dallas / Fort Worth TRACON
Tue 05:41:07 PM 32.9167 -96.8167 337° Northwest 139 160 1,600 -800 Descending Dallas / Fort Worth TRACON
Tue 05:42:07 PM 32.9500 -96.8333 337° Northwest 134 154 800 -800 Descending Dallas / Fort Worth TRACON

Login

Don't have an account? Register now (free) for customized features, flight alerts, and more!